Stockton, Wisconsin
Current Conditions -  °F | °C
As of 1:35 PM on Tuesday 21 Oct 2014 (Local Time) from KSTE Reporting Station
Overcast Overcast  
Wind Chill: 45°   Ceiling: 2800
Heat Index: 48°   Visibility: 10mi
Dew Point: 35°   Wind: 6mph
Humidity: 61%   Direction: 360°N
Pressure: 30.23"   Gusts: NA
Location:  44.5531°N, 89.5186°W
Report Text: KSTE 211835Z AUTO 36005KT 10SM OVC028 09/02 A3023 RMK AO2 T00870015
Loading
Personal Weather Stations






























Interactive Weather Map
Tropical Storm Tracking
New forecast layout! Learn more

10-Day Weather Forecast

Advertisements
Track Severe Weather on mobile